sensor_id;sensor_type;location;lat;lon;timestamp;P1;durP1;ratioP1;P2;durP2;ratioP2
76597;SDS011;65486;53.144;18.134;2023-05-07T00:01:32;19.40;;;10.40;;
76597;SDS011;65486;53.144;18.134;2023-05-07T00:03:59;18.10;;;9.60;;
76597;SDS011;65486;53.144;18.134;2023-05-07T00:06:27;18.20;;;11.00;;
76597;SDS011;65486;53.144;18.134;2023-05-07T00:09:00;14.50;;;8.40;;
76597;SDS011;65486;53.144;18.134;2023-05-07T00:11:30;18.10;;;9.60;;
76597;SDS011;65486;53.144;18.134;2023-05-07T00:13:59;19.60;;;10.30;;
76597;SDS011;65486;53.144;18.134;2023-05-07T00:16:26;17.70;;;8.40;;
76597;SDS011;65486;53.144;18.134;2023-05-07T00:18:55;18.20;;;9.70;;
76597;SDS011;65486;53.144;18.134;2023-05-07T00:21:22;16.30;;;9.20;;
76597;SDS011;65486;53.144;18.134;2023-05-07T00:23:49;16.70;;;7.80;;
76597;SDS011;65486;53.144;18.134;2023-05-07T00:26:16;15.90;;;8.10;;
76597;SDS011;65486;53.144;18.134;2023-05-07T00:28:44;15.50;;;8.50;;
76597;SDS011;65486;53.144;18.134;2023-05-07T00:31:11;14.10;;;8.00;;
76597;SDS011;65486;53.144;18.134;2023-05-07T00:33:38;18.10;;;8.80;;
76597;SDS011;65486;53.144;18.134;2023-05-07T00:36:06;19.10;;;9.90;;
76597;SDS011;65486;53.144;18.134;2023-05-07T00:38:33;16.50;;;8.50;;
76597;SDS011;65486;53.144;18.134;2023-05-07T00:41:01;18.20;;;9.80;;
76597;SDS011;65486;53.144;18.134;2023-05-07T00:43:29;17.40;;;8.90;;
76597;SDS011;65486;53.144;18.134;2023-05-07T00:45:56;16.60;;;9.10;;
76597;SDS011;65486;53.144;18.134;2023-05-07T00:48:23;15.10;;;8.10;;
76597;SDS011;65486;53.144;18.134;2023-05-07T00:50:52;17.10;;;8.70;;
76597;SDS011;65486;53.144;18.134;2023-05-07T00:53:19;20.70;;;11.00;;
76597;SDS011;65486;53.144;18.134;2023-05-07T00:55:47;28.00;;;14.20;;
76597;SDS011;65486;53.144;18.134;2023-05-07T00:58:16;33.20;;;14.10;;
76597;SDS011;65486;53.144;18.134;2023-05-07T01:00:44;34.90;;;16.60;;
76597;SDS011;65486;53.144;18.134;2023-05-07T01:03:13;33.90;;;16.10;;
76597;SDS011;65486;53.144;18.134;2023-05-07T01:05:40;32.90;;;16.80;;
76597;SDS011;65486;53.144;18.134;2023-05-07T01:08:08;33.60;;;16.40;;
76597;SDS011;65486;53.144;18.134;2023-05-07T01:10:35;29.10;;;15.20;;
76597;SDS011;65486;53.144;18.134;2023-05-07T01:13:03;22.70;;;11.60;;
76597;SDS011;65486;53.144;18.134;2023-05-07T01:15:30;19.50;;;11.00;;
76597;SDS011;65486;53.144;18.134;2023-05-07T01:17:57;17.00;;;9.80;;
76597;SDS011;65486;53.144;18.134;2023-05-07T01:20:34;19.00;;;10.60;;
76597;SDS011;65486;53.144;18.134;2023-05-07T01:23:01;18.40;;;10.80;;
76597;SDS011;65486;53.144;18.134;2023-05-07T01:25:31;16.10;;;8.40;;
76597;SDS011;65486;53.144;18.134;2023-05-07T01:28:00;18.80;;;9.90;;
76597;SDS011;65486;53.144;18.134;2023-05-07T01:30:29;13.50;;;7.50;;
76597;SDS011;65486;53.144;18.134;2023-05-07T01:35:29;18.10;;;9.10;;
76597;SDS011;65486;53.144;18.134;2023-05-07T01:38:01;17.90;;;7.30;;
76597;SDS011;65486;53.144;18.134;2023-05-07T01:40:33;18.00;;;9.30;;
76597;SDS011;65486;53.144;18.134;2023-05-07T01:43:04;13.50;;;7.30;;
76597;SDS011;65486;53.144;18.134;2023-05-07T01:45:44;16.00;;;9.40;;
76597;SDS011;65486;53.144;18.134;2023-05-07T01:48:12;14.10;;;7.60;;
76597;SDS011;65486;53.144;18.134;2023-05-07T01:50:41;18.10;;;10.30;;
76597;SDS011;65486;53.144;18.134;2023-05-07T01:53:09;16.10;;;8.50;;
76597;SDS011;65486;53.144;18.134;2023-05-07T01:55:36;18.30;;;9.00;;
76597;SDS011;65486;53.144;18.134;2023-05-07T01:58:04;12.40;;;6.00;;
76597;SDS011;65486;53.144;18.134;2023-05-07T02:00:31;12.50;;;7.00;;
76597;SDS011;65486;53.144;18.134;2023-05-07T02:03:00;16.80;;;9.10;;
76597;SDS011;65486;53.144;18.134;2023-05-07T02:05:47;12.90;;;6.60;;
76597;SDS011;65486;53.144;18.134;2023-05-07T02:08:31;15.30;;;8.10;;
76597;SDS011;65486;53.144;18.134;2023-05-07T02:10:58;14.20;;;6.80;;
76597;SDS011;65486;53.144;18.134;2023-05-07T02:13:28;17.80;;;9.10;;
76597;SDS011;65486;53.144;18.134;2023-05-07T02:15:57;17.00;;;9.30;;
76597;SDS011;65486;53.144;18.134;2023-05-07T02:18:24;19.00;;;10.60;;
76597;SDS011;65486;53.144;18.134;2023-05-07T02:20:52;17.60;;;9.40;;
76597;SDS011;65486;53.144;18.134;2023-05-07T02:23:19;17.20;;;9.00;;
76597;SDS011;65486;53.144;18.134;2023-05-07T02:25:47;21.70;;;11.30;;
76597;SDS011;65486;53.144;18.134;2023-05-07T02:28:13;18.30;;;9.20;;
76597;SDS011;65486;53.144;18.134;2023-05-07T02:31:04;19.20;;;9.60;;
76597;SDS011;65486;53.144;18.134;2023-05-07T02:33:31;21.90;;;11.20;;
76597;SDS011;65486;53.144;18.134;2023-05-07T02:36:08;23.30;;;12.10;;
76597;SDS011;65486;53.144;18.134;2023-05-07T02:38:43;26.10;;;12.90;;
76597;SDS011;65486;53.144;18.134;2023-05-07T02:41:13;25.40;;;14.00;;
76597;SDS011;65486;53.144;18.134;2023-05-07T02:43:40;30.70;;;16.70;;
76597;SDS011;65486;53.144;18.134;2023-05-07T02:46:08;31.10;;;15.60;;
76597;SDS011;65486;53.144;18.134;2023-05-07T02:48:38;30.40;;;15.60;;
76597;SDS011;65486;53.144;18.134;2023-05-07T02:51:05;30.60;;;14.10;;
76597;SDS011;65486;53.144;18.134;2023-05-07T02:53:32;33.80;;;16.50;;
76597;SDS011;65486;53.144;18.134;2023-05-07T02:56:01;28.40;;;13.60;;
76597;SDS011;65486;53.144;18.134;2023-05-07T02:58:29;31.50;;;16.50;;
76597;SDS011;65486;53.144;18.134;2023-05-07T03:00:57;32.30;;;16.70;;
76597;SDS011;65486;53.144;18.134;2023-05-07T03:03:34;32.70;;;16.70;;
76597;SDS011;65486;53.144;18.134;2023-05-07T03:06:02;30.00;;;17.30;;
76597;SDS011;65486;53.144;18.134;2023-05-07T03:08:29;36.30;;;19.20;;
76597;SDS011;65486;53.144;18.134;2023-05-07T03:10:56;37.70;;;21.10;;
76597;SDS011;65486;53.144;18.134;2023-05-07T03:13:23;40.50;;;21.10;;
76597;SDS011;65486;53.144;18.134;2023-05-07T03:15:50;44.20;;;21.90;;
76597;SDS011;65486;53.144;18.134;2023-05-07T03:18:17;45.50;;;23.10;;
76597;SDS011;65486;53.144;18.134;2023-05-07T03:20:45;35.40;;;18.70;;
76597;SDS011;65486;53.144;18.134;2023-05-07T03:23:16;41.20;;;21.80;;
76597;SDS011;65486;53.144;18.134;2023-05-07T03:25:45;39.60;;;20.40;;
76597;SDS011;65486;53.144;18.134;2023-05-07T03:28:12;40.30;;;20.30;;
76597;SDS011;65486;53.144;18.134;2023-05-07T03:30:44;39.10;;;21.70;;
76597;SDS011;65486;53.144;18.134;2023-05-07T03:33:11;33.50;;;17.50;;
76597;SDS011;65486;53.144;18.134;2023-05-07T03:35:38;34.40;;;19.40;;
76597;SDS011;65486;53.144;18.134;2023-05-07T03:38:05;29.90;;;17.30;;
76597;SDS011;65486;53.144;18.134;2023-05-07T03:40:36;23.80;;;13.40;;
76597;SDS011;65486;53.144;18.134;2023-05-07T03:43:06;24.80;;;14.60;;
76597;SDS011;65486;53.144;18.134;2023-05-07T03:45:35;27.60;;;15.30;;
76597;SDS011;65486;53.144;18.134;2023-05-07T03:48:13;21.10;;;11.90;;
76597;SDS011;65486;53.144;18.134;2023-05-07T03:50:40;25.40;;;15.00;;
76597;SDS011;65486;53.144;18.134;2023-05-07T03:53:07;21.00;;;12.30;;
76597;SDS011;65486;53.144;18.134;2023-05-07T03:55:38;25.50;;;14.20;;
76597;SDS011;65486;53.144;18.134;2023-05-07T03:58:06;22.30;;;12.50;;
76597;SDS011;65486;53.144;18.134;2023-05-07T04:00:36;24.70;;;14.80;;
76597;SDS011;65486;53.144;18.134;2023-05-07T04:03:14;24.60;;;13.20;;
76597;SDS011;65486;53.144;18.134;2023-05-07T04:05:42;18.70;;;11.20;;
76597;SDS011;65486;53.144;18.134;2023-05-07T04:08:11;23.80;;;15.00;;
76597;SDS011;65486;53.144;18.134;2023-05-07T04:10:40;29.10;;;15.20;;
76597;SDS011;65486;53.144;18.134;2023-05-07T04:13:09;33.80;;;18.30;;
76597;SDS011;65486;53.144;18.134;2023-05-07T04:15:38;25.30;;;14.80;;
76597;SDS011;65486;53.144;18.134;2023-05-07T04:18:10;22.40;;;11.90;;
76597;SDS011;65486;53.144;18.134;2023-05-07T04:20:38;31.70;;;18.00;;
76597;SDS011;65486;53.144;18.134;2023-05-07T04:23:09;27.80;;;15.80;;
76597;SDS011;65486;53.144;18.134;2023-05-07T04:25:38;22.60;;;12.80;;
76597;SDS011;65486;53.144;18.134;2023-05-07T04:28:12;23.90;;;13.70;;
76597;SDS011;65486;53.144;18.134;2023-05-07T04:30:39;26.80;;;15.60;;
76597;SDS011;65486;53.144;18.134;2023-05-07T04:33:09;15.00;;;8.80;;
76597;SDS011;65486;53.144;18.134;2023-05-07T04:35:46;25.40;;;14.40;;
76597;SDS011;65486;53.144;18.134;2023-05-07T04:38:13;29.50;;;17.10;;
76597;SDS011;65486;53.144;18.134;2023-05-07T04:40:40;24.00;;;14.60;;
76597;SDS011;65486;53.144;18.134;2023-05-07T04:43:09;21.10;;;12.50;;
76597;SDS011;65486;53.144;18.134;2023-05-07T04:45:42;18.30;;;11.90;;
76597;SDS011;65486;53.144;18.134;2023-05-07T04:48:10;17.00;;;10.30;;
76597;SDS011;65486;53.144;18.134;2023-05-07T04:50:38;23.90;;;15.10;;
76597;SDS011;65486;53.144;18.134;2023-05-07T04:53:06;21.10;;;12.40;;
76597;SDS011;65486;53.144;18.134;2023-05-07T04:55:33;26.40;;;14.90;;
76597;SDS011;65486;53.144;18.134;2023-05-07T04:58:00;22.50;;;13.80;;
76597;SDS011;65486;53.144;18.134;2023-05-07T05:00:29;26.30;;;15.00;;
76597;SDS011;65486;53.144;18.134;2023-05-07T05:02:57;14.40;;;8.90;;
76597;SDS011;65486;53.144;18.134;2023-05-07T05:05:27;20.00;;;11.80;;
76597;SDS011;65486;53.144;18.134;2023-05-07T05:07:55;24.40;;;13.60;;
76597;SDS011;65486;53.144;18.134;2023-05-07T05:10:22;18.40;;;11.70;;
76597;SDS011;65486;53.144;18.134;2023-05-07T05:12:49;22.10;;;13.30;;
76597;SDS011;65486;53.144;18.134;2023-05-07T05:15:16;24.60;;;14.90;;
76597;SDS011;65486;53.144;18.134;2023-05-07T05:17:44;21.50;;;12.80;;
76597;SDS011;65486;53.144;18.134;2023-05-07T05:20:12;21.90;;;13.10;;
76597;SDS011;65486;53.144;18.134;2023-05-07T05:22:40;16.60;;;9.80;;
76597;SDS011;65486;53.144;18.134;2023-05-07T05:25:08;15.00;;;11.10;;
76597;SDS011;65486;53.144;18.134;2023-05-07T05:27:36;15.00;;;10.90;;
76597;SDS011;65486;53.144;18.134;2023-05-07T05:30:04;18.20;;;11.30;;
76597;SDS011;65486;53.144;18.134;2023-05-07T05:32:32;11.40;;;8.90;;
76597;SDS011;65486;53.144;18.134;2023-05-07T05:34:59;16.20;;;10.70;;
76597;SDS011;65486;53.144;18.134;2023-05-07T05:37:27;14.10;;;9.80;;
76597;SDS011;65486;53.144;18.134;2023-05-07T05:39:54;13.40;;;10.00;;
76597;SDS011;65486;53.144;18.134;2023-05-07T05:42:23;13.40;;;10.60;;
76597;SDS011;65486;53.144;18.134;2023-05-07T05:44:51;16.50;;;10.70;;
76597;SDS011;65486;53.144;18.134;2023-05-07T05:47:19;13.40;;;10.00;;
76597;SDS011;65486;53.144;18.134;2023-05-07T05:49:46;12.10;;;8.90;;
76597;SDS011;65486;53.144;18.134;2023-05-07T05:52:15;13.90;;;9.30;;
76597;SDS011;65486;53.144;18.134;2023-05-07T05:54:44;13.20;;;9.90;;
76597;SDS011;65486;53.144;18.134;2023-05-07T05:57:12;11.00;;;7.70;;
76597;SDS011;65486;53.144;18.134;2023-05-07T05:59:42;11.90;;;8.30;;
76597;SDS011;65486;53.144;18.134;2023-05-07T06:02:13;11.50;;;8.40;;
76597;SDS011;65486;53.144;18.134;2023-05-07T06:04:41;12.40;;;9.00;;
76597;SDS011;65486;53.144;18.134;2023-05-07T06:07:09;11.10;;;9.30;;
76597;SDS011;65486;53.144;18.134;2023-05-07T06:09:36;10.40;;;8.30;;
76597;SDS011;65486;53.144;18.134;2023-05-07T06:12:03;11.30;;;8.90;;
76597;SDS011;65486;53.144;18.134;2023-05-07T06:14:30;14.20;;;9.70;;
76597;SDS011;65486;53.144;18.134;2023-05-07T06:16:59;10.50;;;8.50;;
76597;SDS011;65486;53.144;18.134;2023-05-07T06:19:26;11.30;;;9.20;;
76597;SDS011;65486;53.144;18.134;2023-05-07T06:22:05;13.60;;;8.90;;
76597;SDS011;65486;53.144;18.134;2023-05-07T06:24:35;11.40;;;8.30;;
76597;SDS011;65486;53.144;18.134;2023-05-07T06:27:02;13.20;;;8.50;;
76597;SDS011;65486;53.144;18.134;2023-05-07T06:29:30;11.20;;;8.50;;
76597;SDS011;65486;53.144;18.134;2023-05-07T06:32:06;9.80;;;7.80;;
76597;SDS011;65486;53.144;18.134;2023-05-07T06:34:37;10.40;;;7.60;;
76597;SDS011;65486;53.144;18.134;2023-05-07T06:37:06;9.30;;;6.70;;
76597;SDS011;65486;53.144;18.134;2023-05-07T06:39:47;10.90;;;8.30;;
76597;SDS011;65486;53.144;18.134;2023-05-07T06:42:17;9.60;;;7.20;;
76597;SDS011;65486;53.144;18.134;2023-05-07T06:44:46;11.70;;;7.00;;
76597;SDS011;65486;53.144;18.134;2023-05-07T06:47:16;8.10;;;6.60;;
76597;SDS011;65486;53.144;18.134;2023-05-07T06:49:44;8.90;;;6.30;;
76597;SDS011;65486;53.144;18.134;2023-05-07T06:52:12;9.50;;;6.70;;
76597;SDS011;65486;53.144;18.134;2023-05-07T06:54:39;8.10;;;6.80;;
76597;SDS011;65486;53.144;18.134;2023-05-07T06:57:06;9.00;;;6.10;;
76597;SDS011;65486;53.144;18.134;2023-05-07T06:59:35;9.60;;;6.10;;
76597;SDS011;65486;53.144;18.134;2023-05-07T07:02:02;8.80;;;5.30;;
76597;SDS011;65486;53.144;18.134;2023-05-07T07:04:45;7.90;;;4.50;;
76597;SDS011;65486;53.144;18.134;2023-05-07T07:07:11;7.10;;;4.90;;
76597;SDS011;65486;53.144;18.134;2023-05-07T07:09:39;7.30;;;4.00;;
76597;SDS011;65486;53.144;18.134;2023-05-07T07:12:06;9.10;;;4.70;;
76597;SDS011;65486;53.144;18.134;2023-05-07T07:14:34;6.00;;;3.80;;
76597;SDS011;65486;53.144;18.134;2023-05-07T07:17:01;7.30;;;4.10;;
76597;SDS011;65486;53.144;18.134;2023-05-07T07:19:29;7.10;;;3.60;;
76597;SDS011;65486;53.144;18.134;2023-05-07T07:21:58;7.40;;;4.50;;
76597;SDS011;65486;53.144;18.134;2023-05-07T07:24:26;6.60;;;4.40;;
76597;SDS011;65486;53.144;18.134;2023-05-07T07:26:56;6.60;;;3.60;;
76597;SDS011;65486;53.144;18.134;2023-05-07T07:29:25;6.00;;;3.80;;
76597;SDS011;65486;53.144;18.134;2023-05-07T07:31:53;5.70;;;4.20;;
76597;SDS011;65486;53.144;18.134;2023-05-07T07:34:20;7.10;;;3.60;;
76597;SDS011;65486;53.144;18.134;2023-05-07T07:36:48;7.60;;;4.00;;
76597;SDS011;65486;53.144;18.134;2023-05-07T07:39:19;6.90;;;4.60;;
76597;SDS011;65486;53.144;18.134;2023-05-07T07:41:47;5.00;;;3.30;;
76597;SDS011;65486;53.144;18.134;2023-05-07T07:44:15;5.90;;;3.10;;
76597;SDS011;65486;53.144;18.134;2023-05-07T07:46:42;7.50;;;3.00;;
76597;SDS011;65486;53.144;18.134;2023-05-07T07:49:09;6.90;;;3.30;;
76597;SDS011;65486;53.144;18.134;2023-05-07T07:51:36;4.80;;;3.10;;
76597;SDS011;65486;53.144;18.134;2023-05-07T07:54:03;6.90;;;3.30;;
76597;SDS011;65486;53.144;18.134;2023-05-07T07:56:32;7.00;;;3.60;;
76597;SDS011;65486;53.144;18.134;2023-05-07T07:59:04;5.30;;;3.30;;
76597;SDS011;65486;53.144;18.134;2023-05-07T08:01:59;5.80;;;3.10;;
76597;SDS011;65486;53.144;18.134;2023-05-07T08:04:30;5.30;;;2.60;;
76597;SDS011;65486;53.144;18.134;2023-05-07T08:07:11;5.50;;;2.60;;
76597;SDS011;65486;53.144;18.134;2023-05-07T08:09:41;4.50;;;2.70;;
76597;SDS011;65486;53.144;18.134;2023-05-07T08:12:08;4.40;;;3.60;;
76597;SDS011;65486;53.144;18.134;2023-05-07T08:14:35;5.50;;;2.50;;
76597;SDS011;65486;53.144;18.134;2023-05-07T08:17:04;6.70;;;3.30;;
76597;SDS011;65486;53.144;18.134;2023-05-07T08:19:31;4.30;;;2.90;;
76597;SDS011;65486;53.144;18.134;2023-05-07T08:22:09;4.40;;;2.90;;
76597;SDS011;65486;53.144;18.134;2023-05-07T08:24:40;7.10;;;2.40;;
76597;SDS011;65486;53.144;18.134;2023-05-07T08:27:22;3.90;;;1.90;;
76597;SDS011;65486;53.144;18.134;2023-05-07T08:29:58;4.00;;;2.90;;
76597;SDS011;65486;53.144;18.134;2023-05-07T08:32:26;4.10;;;2.80;;
76597;SDS011;65486;53.144;18.134;2023-05-07T08:34:54;5.40;;;2.80;;
76597;SDS011;65486;53.144;18.134;2023-05-07T08:37:21;6.20;;;2.70;;
76597;SDS011;65486;53.144;18.134;2023-05-07T08:39:48;3.30;;;2.30;;
76597;SDS011;65486;53.144;18.134;2023-05-07T08:42:19;4.50;;;2.40;;
76597;SDS011;65486;53.144;18.134;2023-05-07T08:44:50;4.80;;;2.90;;
76597;SDS011;65486;53.144;18.134;2023-05-07T08:47:24;4.50;;;2.80;;
76597;SDS011;65486;53.144;18.134;2023-05-07T08:50:01;4.50;;;2.50;;
76597;SDS011;65486;53.144;18.134;2023-05-07T08:52:55;3.70;;;2.10;;
76597;SDS011;65486;53.144;18.134;2023-05-07T08:55:26;3.80;;;2.20;;
76597;SDS011;65486;53.144;18.134;2023-05-07T08:57:57;4.70;;;2.00;;
76597;SDS011;65486;53.144;18.134;2023-05-07T09:00:24;3.80;;;2.50;;
76597;SDS011;65486;53.144;18.134;2023-05-07T09:02:52;5.80;;;2.90;;
76597;SDS011;65486;53.144;18.134;2023-05-07T09:05:21;3.90;;;2.70;;
76597;SDS011;65486;53.144;18.134;2023-05-07T09:07:48;2.50;;;1.50;;
76597;SDS011;65486;53.144;18.134;2023-05-07T09:10:17;5.70;;;2.70;;
76597;SDS011;65486;53.144;18.134;2023-05-07T09:12:57;3.90;;;2.80;;
76597;SDS011;65486;53.144;18.134;2023-05-07T09:15:28;3.90;;;1.60;;
76597;SDS011;65486;53.144;18.134;2023-05-07T09:17:59;3.90;;;1.50;;
76597;SDS011;65486;53.144;18.134;2023-05-07T09:20:30;4.40;;;2.60;;
76597;SDS011;65486;53.144;18.134;2023-05-07T09:22:58;6.00;;;2.60;;
76597;SDS011;65486;53.144;18.134;2023-05-07T09:25:29;6.50;;;4.00;;
76597;SDS011;65486;53.144;18.134;2023-05-07T09:28:05;3.50;;;2.70;;
76597;SDS011;65486;53.144;18.134;2023-05-07T09:30:41;4.40;;;3.00;;
76597;SDS011;65486;53.144;18.134;2023-05-07T09:33:12;5.50;;;2.30;;
76597;SDS011;65486;53.144;18.134;2023-05-07T09:35:55;6.30;;;4.20;;
76597;SDS011;65486;53.144;18.134;2023-05-07T09:38:23;5.00;;;3.40;;
76597;SDS011;65486;53.144;18.134;2023-05-07T09:41:01;4.90;;;3.10;;
76597;SDS011;65486;53.144;18.134;2023-05-07T09:43:40;4.40;;;2.80;;
76597;SDS011;65486;53.144;18.134;2023-05-07T09:46:12;4.40;;;3.10;;
76597;SDS011;65486;53.144;18.134;2023-05-07T09:48:43;4.00;;;2.50;;
76597;SDS011;65486;53.144;18.134;2023-05-07T09:51:17;4.90;;;3.30;;
76597;SDS011;65486;53.144;18.134;2023-05-07T09:53:56;6.80;;;3.30;;
76597;SDS011;65486;53.144;18.134;2023-05-07T09:56:24;4.20;;;2.60;;
76597;SDS011;65486;53.144;18.134;2023-05-07T09:58:52;5.80;;;3.00;;
76597;SDS011;65486;53.144;18.134;2023-05-07T10:01:23;5.40;;;3.20;;
76597;SDS011;65486;53.144;18.134;2023-05-07T10:03:54;5.30;;;3.10;;
76597;SDS011;65486;53.144;18.134;2023-05-07T10:06:23;5.20;;;3.40;;
76597;SDS011;65486;53.144;18.134;2023-05-07T10:08:54;5.70;;;2.80;;
76597;SDS011;65486;53.144;18.134;2023-05-07T10:11:23;4.90;;;3.00;;
76597;SDS011;65486;53.144;18.134;2023-05-07T10:13:51;6.40;;;2.80;;
76597;SDS011;65486;53.144;18.134;2023-05-07T10:16:21;4.30;;;2.90;;
76597;SDS011;65486;53.144;18.134;2023-05-07T10:18:50;6.10;;;3.00;;
76597;SDS011;65486;53.144;18.134;2023-05-07T10:21:22;5.60;;;2.90;;
76597;SDS011;65486;53.144;18.134;2023-05-07T10:26:45;5.20;;;3.80;;
76597;SDS011;65486;53.144;18.134;2023-05-07T10:32:19;5.20;;;3.40;;
76597;SDS011;65486;53.144;18.134;2023-05-07T10:35:37;5.70;;;3.70;;
76597;SDS011;65486;53.144;18.134;2023-05-07T10:38:10;4.40;;;3.10;;
76597;SDS011;65486;53.144;18.134;2023-05-07T10:40:40;4.30;;;2.60;;
76597;SDS011;65486;53.144;18.134;2023-05-07T10:43:08;4.70;;;2.90;;
76597;SDS011;65486;53.144;18.134;2023-05-07T10:45:42;5.60;;;3.70;;
76597;SDS011;65486;53.144;18.134;2023-05-07T10:54:42;5.20;;;3.00;;
76597;SDS011;65486;53.144;18.134;2023-05-07T11:00:00;4.70;;;3.50;;
76597;SDS011;65486;53.144;18.134;2023-05-07T11:05:33;5.60;;;3.60;;
76597;SDS011;65486;53.144;18.134;2023-05-07T11:08:17;3.40;;;2.40;;
76597;SDS011;65486;53.144;18.134;2023-05-07T11:11:07;5.00;;;3.60;;
76597;SDS011;65486;53.144;18.134;2023-05-07T11:13:44;4.80;;;3.20;;
76597;SDS011;65486;53.144;18.134;2023-05-07T11:17:02;6.10;;;3.60;;
76597;SDS011;65486;53.144;18.134;2023-05-07T11:19:47;5.70;;;3.00;;
76597;SDS011;65486;53.144;18.134;2023-05-07T11:25:23;4.50;;;3.40;;
76597;SDS011;65486;53.144;18.134;2023-05-07T11:27:55;4.90;;;3.90;;
76597;SDS011;65486;53.144;18.134;2023-05-07T11:30:25;4.90;;;3.10;;
76597;SDS011;65486;53.144;18.134;2023-05-07T11:32:58;7.40;;;3.40;;
76597;SDS011;65486;53.144;18.134;2023-05-07T11:35:34;4.40;;;2.40;;
76597;SDS011;65486;53.144;18.134;2023-05-07T11:41:07;4.50;;;3.40;;
76597;SDS011;65486;53.144;18.134;2023-05-07T11:43:35;4.30;;;3.10;;
76597;SDS011;65486;53.144;18.134;2023-05-07T11:46:07;6.40;;;3.50;;
76597;SDS011;65486;53.144;18.134;2023-05-07T11:48:38;4.40;;;3.00;;
76597;SDS011;65486;53.144;18.134;2023-05-07T11:51:06;5.70;;;3.00;;
76597;SDS011;65486;53.144;18.134;2023-05-07T11:53:42;6.90;;;3.60;;
76597;SDS011;65486;53.144;18.134;2023-05-07T11:56:33;4.90;;;3.20;;
76597;SDS011;65486;53.144;18.134;2023-05-07T11:59:07;4.60;;;3.30;;
76597;SDS011;65486;53.144;18.134;2023-05-07T12:02:03;4.40;;;2.40;;
76597;SDS011;65486;53.144;18.134;2023-05-07T12:04:39;4.00;;;3.10;;
76597;SDS011;65486;53.144;18.134;2023-05-07T12:07:14;3.80;;;2.50;;
76597;SDS011;65486;53.144;18.134;2023-05-07T12:09:42;5.30;;;3.40;;
76597;SDS011;65486;53.144;18.134;2023-05-07T12:12:12;4.20;;;2.70;;
76597;SDS011;65486;53.144;18.134;2023-05-07T12:14:43;5.00;;;2.70;;
76597;SDS011;65486;53.144;18.134;2023-05-07T12:17:19;5.70;;;2.90;;
76597;SDS011;65486;53.144;18.134;2023-05-07T12:19:49;5.50;;;3.30;;
76597;SDS011;65486;53.144;18.134;2023-05-07T12:22:24;5.40;;;2.80;;
76597;SDS011;65486;53.144;18.134;2023-05-07T12:25:08;4.30;;;2.90;;
76597;SDS011;65486;53.144;18.134;2023-05-07T12:27:52;3.80;;;3.00;;
76597;SDS011;65486;53.144;18.134;2023-05-07T12:30:21;6.10;;;3.60;;
76597;SDS011;65486;53.144;18.134;2023-05-07T12:32:51;4.20;;;2.80;;
76597;SDS011;65486;53.144;18.134;2023-05-07T12:35:27;8.60;;;3.00;;
76597;SDS011;65486;53.144;18.134;2023-05-07T12:38:09;3.80;;;2.50;;
76597;SDS011;65486;53.144;18.134;2023-05-07T12:40:47;3.70;;;2.60;;
76597;SDS011;65486;53.144;18.134;2023-05-07T12:43:26;4.60;;;2.70;;
76597;SDS011;65486;53.144;18.134;2023-05-07T12:46:06;4.60;;;2.70;;
76597;SDS011;65486;53.144;18.134;2023-05-07T12:48:50;4.90;;;2.50;;
76597;SDS011;65486;53.144;18.134;2023-05-07T12:51:21;4.10;;;2.80;;
76597;SDS011;65486;53.144;18.134;2023-05-07T12:53:48;3.80;;;2.30;;
76597;SDS011;65486;53.144;18.134;2023-05-07T12:56:16;5.70;;;3.00;;
76597;SDS011;65486;53.144;18.134;2023-05-07T12:58:50;4.60;;;2.90;;
76597;SDS011;65486;53.144;18.134;2023-05-07T13:01:20;3.90;;;2.80;;
76597;SDS011;65486;53.144;18.134;2023-05-07T13:03:48;4.40;;;2.10;;
76597;SDS011;65486;53.144;18.134;2023-05-07T13:06:17;4.20;;;2.70;;
76597;SDS011;65486;53.144;18.134;2023-05-07T13:08:47;6.20;;;3.00;;
76597;SDS011;65486;53.144;18.134;2023-05-07T13:11:16;3.30;;;2.50;;
76597;SDS011;65486;53.144;18.134;2023-05-07T13:13:45;4.40;;;2.50;;
76597;SDS011;65486;53.144;18.134;2023-05-07T13:16:12;3.20;;;2.40;;
76597;SDS011;65486;53.144;18.134;2023-05-07T13:18:40;4.90;;;2.90;;
76597;SDS011;65486;53.144;18.134;2023-05-07T13:21:10;5.10;;;2.40;;
76597;SDS011;65486;53.144;18.134;2023-05-07T13:23:54;5.80;;;2.90;;
76597;SDS011;65486;53.144;18.134;2023-05-07T13:26:25;3.60;;;2.30;;
76597;SDS011;65486;53.144;18.134;2023-05-07T13:29:01;4.90;;;2.50;;
76597;SDS011;65486;53.144;18.134;2023-05-07T13:32:02;5.10;;;2.70;;
76597;SDS011;65486;53.144;18.134;2023-05-07T13:34:39;4.20;;;2.80;;
76597;SDS011;65486;53.144;18.134;2023-05-07T13:37:07;5.00;;;2.90;;
76597;SDS011;65486;53.144;18.134;2023-05-07T13:39:34;4.30;;;3.20;;
76597;SDS011;65486;53.144;18.134;2023-05-07T13:42:02;5.90;;;5.40;;
76597;SDS011;65486;53.144;18.134;2023-05-07T13:44:30;4.20;;;2.40;;
76597;SDS011;65486;53.144;18.134;2023-05-07T13:47:02;5.50;;;2.90;;
76597;SDS011;65486;53.144;18.134;2023-05-07T13:49:55;4.40;;;2.70;;
76597;SDS011;65486;53.144;18.134;2023-05-07T13:58:41;4.50;;;2.80;;
76597;SDS011;65486;53.144;18.134;2023-05-07T14:01:09;4.00;;;2.40;;
76597;SDS011;65486;53.144;18.134;2023-05-07T14:03:37;3.70;;;2.80;;
76597;SDS011;65486;53.144;18.134;2023-05-07T14:06:06;4.10;;;2.50;;
76597;SDS011;65486;53.144;18.134;2023-05-07T14:08:36;3.80;;;2.50;;
76597;SDS011;65486;53.144;18.134;2023-05-07T14:11:03;6.70;;;2.90;;
76597;SDS011;65486;53.144;18.134;2023-05-07T14:13:33;3.90;;;2.50;;
76597;SDS011;65486;53.144;18.134;2023-05-07T14:16:19;5.30;;;2.70;;
76597;SDS011;65486;53.144;18.134;2023-05-07T14:19:15;4.60;;;3.00;;
76597;SDS011;65486;53.144;18.134;2023-05-07T14:21:42;4.10;;;2.40;;
76597;SDS011;65486;53.144;18.134;2023-05-07T14:24:09;3.90;;;2.70;;
76597;SDS011;65486;53.144;18.134;2023-05-07T14:26:36;4.00;;;2.60;;
76597;SDS011;65486;53.144;18.134;2023-05-07T14:29:03;4.70;;;2.80;;
76597;SDS011;65486;53.144;18.134;2023-05-07T14:31:31;5.70;;;2.80;;
76597;SDS011;65486;53.144;18.134;2023-05-07T14:34:15;5.30;;;3.00;;
76597;SDS011;65486;53.144;18.134;2023-05-07T14:41:48;4.50;;;2.90;;
76597;SDS011;65486;53.144;18.134;2023-05-07T14:44:30;4.20;;;2.60;;
76597;SDS011;65486;53.144;18.134;2023-05-07T14:46:58;2.00;;;1.80;;
76597;SDS011;65486;53.144;18.134;2023-05-07T14:49:26;4.30;;;2.80;;
76597;SDS011;65486;53.144;18.134;2023-05-07T14:51:54;3.90;;;2.60;;
76597;SDS011;65486;53.144;18.134;2023-05-07T14:54:26;5.20;;;3.10;;
76597;SDS011;65486;53.144;18.134;2023-05-07T14:56:59;4.40;;;2.60;;
76597;SDS011;65486;53.144;18.134;2023-05-07T14:59:29;5.00;;;2.70;;
76597;SDS011;65486;53.144;18.134;2023-05-07T15:01:59;5.10;;;2.90;;
76597;SDS011;65486;53.144;18.134;2023-05-07T15:04:30;4.10;;;2.40;;
76597;SDS011;65486;53.144;18.134;2023-05-07T15:07:07;3.60;;;2.60;;
76597;SDS011;65486;53.144;18.134;2023-05-07T15:09:37;4.80;;;2.70;;
76597;SDS011;65486;53.144;18.134;2023-05-07T15:12:08;12.70;;;3.10;;
76597;SDS011;65486;53.144;18.134;2023-05-07T15:14:35;4.00;;;2.20;;
76597;SDS011;65486;53.144;18.134;2023-05-07T15:17:04;4.30;;;2.80;;
76597;SDS011;65486;53.144;18.134;2023-05-07T15:19:34;4.60;;;2.30;;
76597;SDS011;65486;53.144;18.134;2023-05-07T15:22:01;3.90;;;2.50;;
76597;SDS011;65486;53.144;18.134;2023-05-07T15:24:30;5.10;;;2.40;;
76597;SDS011;65486;53.144;18.134;2023-05-07T15:27:04;4.00;;;2.40;;